createdAt,value
2023-05-13T09:05:29.099Z,101445.80
2023-05-13T09:08:34.510Z,101446.52
2023-05-13T09:11:43.236Z,101440.09
2023-05-13T09:14:48.178Z,101434.34
2023-05-13T09:17:55.663Z,101425.05
2023-05-13T09:21:03.038Z,101419.89
2023-05-13T09:24:31.382Z,101424.31
2023-05-13T09:27:44.847Z,101419.16
2023-05-13T09:30:53.198Z,101416.59
2023-05-13T09:34:08.299Z,101417.87
2023-05-13T09:37:21.737Z,101409.02
2023-05-13T09:40:28.833Z,101405.63
2023-05-13T09:43:37.816Z,101398.33
2023-05-13T09:46:42.886Z,101394.66
2023-05-13T09:49:50.032Z,101386.06
2023-05-13T09:52:58.111Z,101376.40
2023-05-13T09:56:06.878Z,101381.33
2023-05-13T09:59:12.332Z,101382.73
2023-05-13T10:02:22.924Z,101370.09
2023-05-13T10:05:28.498Z,101365.91
2023-05-13T10:08:35.210Z,101361.05
2023-05-13T10:11:40.624Z,101363.73
2023-05-13T10:14:46.288Z,101365.27
2023-05-13T10:17:51.910Z,101355.16
2023-05-13T10:21:01.037Z,101350.36
2023-05-13T10:24:05.953Z,101348.27
2023-05-13T10:27:12.253Z,101343.00
2023-05-13T10:30:18.046Z,101342.05
2023-05-13T10:33:23.826Z,101334.13
2023-05-13T10:37:02.112Z,101335.18
2023-05-13T10:40:50.517Z,101332.28
2023-05-13T10:43:49.644Z,101334.41
2023-05-13T10:46:58.467Z,101331.80
2023-05-13T10:50:11.984Z,101319.36
2023-05-13T10:53:19.492Z,101325.19
2023-05-13T10:56:25.477Z,101324.04
2023-05-13T10:59:31.055Z,101327.83
2023-05-13T11:02:40.657Z,101332.25
2023-05-13T11:05:47.144Z,101323.05
2023-05-13T11:08:58.361Z,101317.52
2023-05-13T11:12:02.802Z,101316.67
2023-05-13T11:15:13.290Z,101320.63
2023-05-13T11:18:21.472Z,101315.28
2023-05-13T11:21:27.785Z,101311.91
2023-05-13T11:24:33.920Z,101309.83
2023-05-13T11:27:41.652Z,101306.59
2023-05-13T11:30:47.669Z,101306.94
2023-05-13T11:34:32.097Z,101308.94
2023-05-13T11:37:38.465Z,101301.06
2023-05-13T11:40:48.109Z,101304.90
2023-05-13T11:43:52.961Z,101307.53
2023-05-13T11:47:13.139Z,101299.88
2023-05-13T11:50:33.958Z,101291.89
2023-05-13T11:53:39.576Z,101295.16
2023-05-13T11:56:45.169Z,101283.27
2023-05-13T11:59:51.510Z,101278.44
2023-05-13T12:02:57.260Z,101275.91
2023-05-13T12:06:02.590Z,101270.20
2023-05-13T12:09:09.688Z,101272.05
2023-05-13T12:12:16.894Z,101269.23
2023-05-13T12:15:32.839Z,101259.71
2023-05-13T12:18:40.358Z,101255.18
2023-05-13T12:21:50.699Z,101253.36
2023-05-13T12:24:58.514Z,101259.70
2023-05-13T12:28:08.115Z,101253.86
2023-05-13T12:31:16.857Z,101246.98
2023-05-13T12:34:24.382Z,101238.36
2023-05-13T12:37:30.512Z,101244.48
2023-05-13T12:40:36.146Z,101235.84
2023-05-13T12:43:41.156Z,101231.28
2023-05-13T12:46:47.782Z,101229.34
2023-05-13T12:50:13.462Z,101229.18
2023-05-13T12:53:19.809Z,101228.04
2023-05-13T12:56:24.561Z,101229.36
2023-05-13T12:59:30.746Z,101221.36
2023-05-13T13:02:36.213Z,101224.36
2023-05-13T13:05:41.798Z,101225.92
2023-05-13T13:08:47.691Z,101220.05
2023-05-13T13:11:54.764Z,101216.23
2023-05-13T13:15:00.796Z,101215.75
2023-05-13T13:18:05.764Z,101212.41
2023-05-13T13:21:12.515Z,101218.16
2023-05-13T13:24:17.905Z,101216.38
2023-05-13T13:27:25.519Z,101214.70
2023-05-13T13:30:32.209Z,101215.33
2023-05-13T13:33:37.551Z,101218.30
2023-05-13T13:36:43.116Z,101211.55
2023-05-13T13:39:48.048Z,101215.25
2023-05-13T13:42:55.271Z,101216.61
2023-05-13T13:46:01.783Z,101207.23
2023-05-13T13:49:22.824Z,101212.77
2023-05-13T13:52:17.547Z,101208.23
2023-05-13T13:55:22.758Z,101204.56
2023-05-13T13:58:27.736Z,101202.38
2023-05-13T14:01:32.452Z,101200.27
2023-05-13T14:04:39.790Z,101202.64
2023-05-13T14:07:45.731Z,101202.27
2023-05-13T14:10:50.640Z,101201.98
2023-05-13T14:13:55.578Z,101202.57
2023-05-13T14:17:00.569Z,101201.54
2023-05-13T14:20:05.569Z,101203.03
2023-05-13T14:23:10.914Z,101215.41
2023-05-13T14:26:20.596Z,101210.25
2023-05-13T14:29:27.327Z,101206.19
2023-05-13T14:32:32.576Z,101207.08
2023-05-13T14:35:40.154Z,101210.80
2023-05-13T14:38:46.277Z,101205.24
2023-05-13T14:41:52.842Z,101206.52
2023-05-13T14:44:59.882Z,101210.91
2023-05-13T14:48:06.472Z,101211.11
2023-05-13T14:51:13.751Z,101214.12
2023-05-13T14:54:20.989Z,101218.52
2023-05-13T14:57:27.942Z,101219.38
2023-05-13T15:00:34.801Z,101218.73
2023-05-13T15:03:35.343Z,101225.30
2023-05-13T15:06:42.554Z,101225.61
2023-05-13T15:09:49.421Z,101221.20
2023-05-13T15:12:57.232Z,101224.88
2023-05-13T15:16:02.099Z,101225.75
2023-05-13T15:19:08.031Z,101220.56
2023-05-13T15:22:14.183Z,101215.03
2023-05-13T15:25:20.997Z,101219.05
2023-05-13T15:28:27.423Z,101217.59
2023-05-13T15:31:34.014Z,101226.10
2023-05-13T15:34:39.882Z,101224.64
2023-05-13T15:37:45.781Z,101230.36
2023-05-13T15:40:54.058Z,101227.73
2023-05-13T15:44:01.231Z,101229.73
2023-05-13T15:47:07.327Z,101228.27
2023-05-13T15:50:14.564Z,101229.50
2023-05-13T15:53:21.578Z,101235.59
2023-05-13T15:56:28.122Z,101242.81
2023-05-13T15:59:33.651Z,101238.20
2023-05-13T16:02:45.837Z,101247.03
2023-05-13T16:05:51.355Z,101233.49
2023-05-13T16:08:58.209Z,101235.48
2023-05-13T16:12:04.534Z,101234.84
2023-05-13T16:15:09.748Z,101234.67
2023-05-13T16:18:16.292Z,101227.34
2023-05-13T16:21:22.267Z,101223.16
2023-05-13T16:24:28.798Z,101230.77
2023-05-13T16:27:37.029Z,101230.66
2023-05-13T16:30:43.746Z,101230.75
2023-05-13T16:33:50.864Z,101230.07
2023-05-13T16:36:59.465Z,101225.75
2023-05-13T16:40:07.887Z,101226.19
2023-05-13T16:43:14.914Z,101229.68
2023-05-13T16:46:20.973Z,101232.94
2023-05-13T16:49:27.570Z,101236.50
2023-05-13T16:52:34.180Z,101230.34
2023-05-13T16:55:33.765Z,101228.33
2023-05-13T16:58:40.949Z,101232.00
2023-05-13T17:01:46.866Z,101225.81
2023-05-13T17:04:53.352Z,101229.69
2023-05-13T17:07:58.931Z,101225.53
2023-05-13T17:11:05.016Z,101232.46
2023-05-13T17:14:11.391Z,101231.73
2023-05-13T17:17:17.409Z,101232.73
2023-05-13T17:20:27.581Z,101232.61
2023-05-13T17:23:32.843Z,101225.48
2023-05-13T17:26:39.185Z,101226.97
2023-05-13T17:29:45.417Z,101229.00
2023-05-13T17:32:51.158Z,101218.86
2023-05-13T17:35:57.482Z,101230.88
2023-05-13T17:39:04.864Z,101228.39
2023-05-13T17:42:10.967Z,101234.55
2023-05-13T17:45:18.011Z,101234.65
2023-05-13T17:48:23.903Z,101240.81
2023-05-13T17:51:30.786Z,101243.66
2023-05-13T17:54:36.406Z,101244.26
2023-05-13T17:57:42.916Z,101247.07
2023-05-13T18:00:49.097Z,101249.95
2023-05-13T18:03:56.450Z,101264.06
2023-05-13T18:07:03.281Z,101259.55
2023-05-13T18:10:09.063Z,101260.89
2023-05-13T18:13:14.625Z,101256.58
2023-05-13T18:16:21.030Z,101259.16
2023-05-13T18:19:27.591Z,101259.40
2023-05-13T18:22:34.593Z,101259.44
2023-05-13T18:25:52.377Z,101264.85
2023-05-13T18:28:48.852Z,101262.64
2023-05-13T18:31:54.610Z,101261.98
2023-05-13T18:35:01.344Z,101263.23
2023-05-13T18:38:07.600Z,101264.34
2023-05-13T18:41:13.322Z,101272.48
2023-05-13T18:44:19.514Z,101269.39
2023-05-13T18:47:25.572Z,101270.21
2023-05-13T18:50:26.261Z,101275.17
2023-05-13T18:53:32.788Z,101277.05
2023-05-13T18:56:39.166Z,101276.09
2023-05-13T18:59:46.269Z,101278.23
2023-05-13T19:02:52.981Z,101275.19
2023-05-13T19:06:00.383Z,101276.59
2023-05-13T19:09:08.075Z,101270.78
2023-05-13T19:12:13.032Z,101274.98
2023-05-13T19:15:20.345Z,101279.03
2023-05-13T19:18:25.156Z,101278.06
2023-05-13T19:21:30.790Z,101281.75
2023-05-13T19:24:37.100Z,101274.35
2023-05-13T19:27:43.013Z,101274.87
2023-05-13T19:30:48.747Z,101276.11
2023-05-13T19:33:56.386Z,101270.42
2023-05-13T19:37:02.587Z,101276.69
2023-05-13T19:40:10.706Z,101277.71
2023-05-13T19:43:15.495Z,101274.63
2023-05-13T19:46:20.871Z,101268.78
2023-05-13T19:49:26.158Z,101264.28
2023-05-13T19:52:32.533Z,101262.23
2023-05-13T19:55:39.317Z,101259.84
2023-05-13T19:58:46.232Z,101266.12
2023-05-13T20:01:53.434Z,101261.87
2023-05-13T20:05:00.352Z,101265.01
2023-05-13T20:08:09.294Z,101260.37
2023-05-13T20:11:14.716Z,101259.05
2023-05-13T20:14:21.527Z,101254.93
2023-05-13T20:17:31.591Z,101253.97
2023-05-13T20:20:38.727Z,101260.91
2023-05-13T20:23:46.236Z,101259.78
2023-05-13T20:26:50.771Z,101255.19
2023-05-13T20:30:00.969Z,101261.97
2023-05-13T20:33:08.036Z,101257.75
2023-05-13T20:36:15.464Z,101248.52
2023-05-13T20:39:23.292Z,101251.19
2023-05-13T20:42:31.098Z,101240.53
2023-05-13T20:45:37.694Z,101242.50
2023-05-13T20:48:42.536Z,101245.34
2023-05-13T20:51:50.019Z,101241.89
2023-05-13T20:54:56.105Z,101232.29
2023-05-13T20:58:03.055Z,101241.09
2023-05-13T21:01:08.519Z,101231.59
2023-05-13T21:04:17.878Z,101227.50
2023-05-13T21:07:24.131Z,101234.75
2023-05-13T21:10:31.388Z,101226.48
2023-05-13T21:13:37.739Z,101239.59
2023-05-13T21:16:43.533Z,101236.00
2023-05-13T21:19:49.660Z,101236.53
2023-05-13T21:22:55.404Z,101237.58
2023-05-13T21:26:01.418Z,101235.20
2023-05-13T21:29:07.458Z,101227.98
2023-05-13T21:32:12.878Z,101235.21
2023-05-13T21:35:21.269Z,101235.59
2023-05-13T21:38:27.226Z,101236.95
2023-05-13T21:41:34.282Z,101233.72
2023-05-13T21:44:39.115Z,101236.28
2023-05-13T21:47:44.132Z,101237.67
2023-05-13T21:50:49.929Z,101230.97
2023-05-13T21:53:56.479Z,101236.65
2023-05-13T21:57:03.026Z,101230.78
2023-05-13T22:00:11.679Z,101233.20
2023-05-13T22:03:18.226Z,101234.58
2023-05-13T22:06:18.888Z,101233.20
2023-05-13T22:09:23.686Z,101232.84
2023-05-13T22:12:30.634Z,101233.89
2023-05-13T22:15:36.280Z,101227.87
2023-05-13T22:18:42.877Z,101227.53
2023-05-13T22:21:48.480Z,101221.53
2023-05-13T22:24:54.310Z,101226.86
2023-05-13T22:28:00.794Z,101232.86
2023-05-13T22:31:08.019Z,101228.91
2023-05-13T22:34:13.611Z,101228.91
2023-05-13T22:37:19.691Z,101227.34
2023-05-13T22:40:25.849Z,101234.23
2023-05-13T22:43:31.212Z,101236.31
2023-05-13T22:46:37.676Z,101233.89
2023-05-13T22:49:43.668Z,101227.88
2023-05-13T22:52:49.701Z,101227.38
2023-05-13T22:55:55.669Z,101228.70
2023-05-13T22:59:02.252Z,101232.64
2023-05-13T23:02:07.897Z,101235.04
2023-05-13T23:05:14.205Z,101239.67
2023-05-13T23:08:20.188Z,101231.77
2023-05-13T23:11:26.940Z,101231.41
2023-05-13T23:14:35.978Z,101229.87
2023-05-13T23:17:40.862Z,101230.05
2023-05-13T23:20:46.044Z,101230.35
2023-05-13T23:23:51.316Z,101230.36
2023-05-13T23:26:57.774Z,101229.66
2023-05-13T23:30:03.213Z,101224.51
2023-05-13T23:33:09.354Z,101219.86
2023-05-13T23:36:15.640Z,101215.38
2023-05-13T23:39:21.584Z,101210.39
2023-05-13T23:42:29.000Z,101215.19
2023-05-13T23:45:34.886Z,101218.27
2023-05-13T23:48:42.236Z,101218.23
2023-05-13T23:51:47.892Z,101214.45
2023-05-13T23:54:54.056Z,101215.45
2023-05-13T23:58:01.523Z,101215.59
